Планы на 30 ноября, 1 и 2 декабря 2018

Объявления о выездах на полеты, учебно-тренировочные сборы, соревнования и иные учебные мероприятия. Если своей машины нет, а выехать на полеты хочется или машина есть, но не хватает компаньона, то это тоже сюда. Информация хранится на форуме три года.

Модераторы: Тюшин Вадим, firstep, dmoroz67

Ответить
Аватара пользователя
Тюшин Вадим
Site Admin
Сообщения: 2729
Зарегистрирован: 28 ноя 2007 22:36
Начал летать: 1986
Откуда: Москва
Контактная информация:

Планы на 30 ноября, 1 и 2 декабря 2018

Сообщение Тюшин Вадим » 28 ноя 2018 21:31

Погода в Сергиевом Посаде:
https://www.gismeteo.ru/weather-sergiye ... 958/3-day/
http://www.windguru.cz/ru/index.php?sc=65630

Погода в Москве:
https://www.gismeteo.ru/weather-moscow-4368/3-day/
http://www.windguru.cz/ru/index.php?sc=13869

Погода в Желохово:
https://www.gismeteo.ru/weather-kaluga- ... 061/3-day/
http://www.windguru.cz/ru/index.php?vs=1&sc=180169

Текущая кольцевая карта: http://meteocenter.net/circ/UUWW.png
Архив кольцовок за сутки: http://www.meteocenter.net/circ/rotate/


Пятница 30 ноября:
Продолжаем курс теории. Третья тема: управление. Начало в 19:30. Материалы к занятию: http://firstep.ru/kulp/theory/lection-03-00.php

Суббота 01 декабря:
На земле снег и в воздухе уверенная минусовая температура. Первый полноценный зимний день. В прогнозе ЮВ. Планируем Желохово. Предполагаю, что получатся и парение, и учебные прыги. Уточнения в пятницу.

Воскресенье 02 декабря:
Тоже ЮВ, но с возможным доворотом на В. Для парящих полетов при чистом востоке в Желохово паршиво. Для прыгов отлично (если ветер не будет слишком сильным). Планируем Желохово.

Если летать один день - ориентируемся на субботу 01 декабря.
Если летать два дня, то ночевка в гостинице. Цены нормальные. Есть столовая, где можно и поужинать, и позавтракать.

Желохово: http://firstep.ru/flyplaces/geloxovo/geloxovo.php
Объезд платной М3 по дороге в Желохово:
https://yandex.ru/maps/?um=constructor% ... ructorLink

Просьба ко всем курсантам и пилотам заявляться на полеты на оба дня не позднее пятницы 19:00. Кто готов летать два дня (при наличии погоды) – пожалуйста, предупреждайте. Инструкторский состав всегда готов (при наличии курсантских заявок). Телефон 8-916-956-56-21.
Если человек хочет летать, то это не лечится. :-)

Аватара пользователя
Тюшин Вадим
Site Admin
Сообщения: 2729
Зарегистрирован: 28 ноя 2007 22:36
Начал летать: 1986
Откуда: Москва
Контактная информация:

Re: Планы на 30 ноября, 1 и 2 декабря 2018

Сообщение Тюшин Вадим » 30 ноя 2018 00:45

Погода в Сергиевом Посаде:
https://www.gismeteo.ru/weather-sergiye ... 958/3-day/
http://www.windguru.cz/ru/index.php?sc=65630

Погода в Москве:
https://www.gismeteo.ru/weather-moscow-4368/3-day/
http://www.windguru.cz/ru/index.php?sc=13869
Москва (Внуково): http://meteocenter.asia/?m=aopa&p=UUWW
Москва (Домодедово): http://meteocenter.asia/?m=aopa&p=UUDD
Москва (Шереметьево): http://meteocenter.asia/?m=aopa&p=UUEE

Погода в Желохово:
https://www.gismeteo.ru/weather-kaluga- ... 061/3-day/
http://www.windguru.cz/ru/index.php?vs=1&sc=180169
http://rp5.ru/3708/ru
http://meteo.paraplan.net/forecast/summ ... place=2024
Калуга (Грабцево): http://meteocenter.asia/?m=aopa&p=UUBC

Текущая кольцевая карта: http://meteocenter.net/circ/UUWW.png
Архив кольцовок за сутки: http://www.meteocenter.net/circ/rotate/


Пятница 30 ноября:
“Управление” подтверждается. Начало в 19:30.


Суббота 01 декабря:
В прогнозе ЮВ. Планируем Желохово, но вероятность успеха не 100%, так как может быть сильновато. Подтверждение выезда в субботу не позднее 5:45. Выезд в 6:30. На месте предположительно к 10:00. Хорошо бы проехать под основным склоном и припарковаться в точке (9) (смотрим схему места). Если не получится, тогда точка (8) в деревне и дальше пешком.
Желохово: http://firstep.ru/flyplaces/geloxovo/geloxovo.php


Воскресенье 02 декабря:
Тоже ЮВ (то есть Желохово), но прогнозы грозятся сильными осадками. Будем определяться в субботу вечером после полетов по обновленному прогнозу погоды и пожеланиям курсантов.


Напоминаю просьбу ко всем курсантам и пилотам заявляться на полеты НА ОБА ДНЯ не позднее пятницы 19:00. Телефон 8-916-956-56-21.
Если человек хочет летать, то это не лечится. :-)

Аватара пользователя
Тюшин Вадим
Site Admin
Сообщения: 2729
Зарегистрирован: 28 ноя 2007 22:36
Начал летать: 1986
Откуда: Москва
Контактная информация:

Re: Планы на 30 ноября, 1 и 2 декабря 2018

Сообщение Тюшин Вадим » 30 ноя 2018 19:23

Текущая погода во Внуково:
==================================================
ICAO : UUWW
Station Name : Moscow/Vnukovo
Time : 30 / 19:00
Temperature : -11.0°C
Dew Point : -14.0°C
RH : 78%
Wind : S (190 degrees) at 2 m/s
Visibility : > 10000m
Pressure : 780.8 mm Hg
==================================================
ICAO : UUWW
Station Name : Moscow/Vnukovo
Time : 30 / 18:30
Temperature : -11.0°C
Dew Point : -15.0°C
RH : 72%
Wind : SSW (200 degrees) at 3 m/s
Visibility : > 10000m
Pressure : 780.8 mm Hg
==================================================
ICAO : UUWW
Station Name : Moscow/Vnukovo
Time : 30 / 18:00
Temperature : -11.0°C
Dew Point : -15.0°C
RH : 72%
Wind : S (180 degrees) at 2 m/s
Visibility : > 10000m
Pressure : 780.8 mm Hg
==================================================
Если человек хочет летать, то это не лечится. :-)

Аватара пользователя
Тюшин Вадим
Site Admin
Сообщения: 2729
Зарегистрирован: 28 ноя 2007 22:36
Начал летать: 1986
Откуда: Москва
Контактная информация:

Re: Планы на 30 ноября, 1 и 2 декабря 2018

Сообщение Тюшин Вадим » 01 дек 2018 07:52

==================================================
ICAO : UUWW
Station Name : Moscow/Vnukovo
Elevation : 200m
Time : 1 / 07:00
Temperature : -14.0°C
Dew Point : -17.0°C
RH : 78%
Wind : ESE (120 degrees) at 3 m/s
Visibility : 9000m
Pressure : 778.5 mm Hg
METAR : UUWW 010400Z 12003MPS 9000 NSC M14/M17 Q1038 R24/190050 NOSIG
==================================================
ICAO : UUEE
Station Name : Moscow/Sheremet'
Elevation : 190m
Time : 1 / 07:00
Temperature : -17.0°C
Dew Point : -18.0°C
RH : 92%
Wind : E (80 degrees) at 3 m/s
Visibility : 5000m
Pressure : 778.5 mm Hg
Weather : Mist
METAR : UUEE 010400Z 08003MPS 5000 BR NSC M17/M18 Q1038 R06R/410145 R06C/410140 NOSIG
==================================================
ICAO : UUDD
Station Name : Moscow/Domodedov
Elevation : 170m
Time : 1 / 07:00
Temperature : -19.0°C
Dew Point : -22.0°C
RH : 77%
Wind : SE (140 degrees) at 2 m/s
Visibility : > 10000m
Pressure : 778.5 mm Hg
METAR : UUDD 010400Z 14002MPS CAVOK M19/M22 Q1038 R14R/520195 NOSIG
==================================================

==================================================
ICAO : UUWW
Station Name : Moscow/Vnukovo
Elevation : 200m
Time : 1 / 06:30
Temperature : -14.0°C
Dew Point : -17.0°C
RH : 78%
Wind : ESE (120 degrees) at 2 m/s
Visibility : > 10000m
Pressure : 778.5 mm Hg
METAR : UUWW 010330Z 12002MPS CAVOK M14/M17 Q1038 R24/190050 NOSIG
==================================================
ICAO : UUEE
Station Name : Moscow/Sheremet'
Elevation : 190m
Time : 1 / 06:30
Temperature : -17.0°C
Dew Point : -18.0°C
RH : 92%
Wind : ENE (60 degrees) at 3 m/s
Visibility : 5000m
Pressure : 779.3 mm Hg
Sky Condition : Scattered clouds at 60m
Weather : Mist, Freezing Fog
METAR : UUEE 010330Z 06003MPS 5000 BR NSC M17/M18 Q1039 R06R/410145 R06C/410140 TEMPO 0500 FZFG SCT002
==================================================
ICAO : UUDD
Station Name : Moscow/Domodedov
Elevation : 170m
Time : 1 / 06:30
Temperature : -19.0°C
Dew Point : -22.0°C
RH : 77%
Wind : Variable at 1 m/s
Visibility : > 10000m
Pressure : 779.3 mm Hg
METAR : UUDD 010330Z VRB01MPS CAVOK M19/M22 Q1039 R14R/520195 NOSIG
==================================================

==================================================
ICAO : UUWW
Station Name : Moscow/Vnukovo
Elevation : 200m
Time : 1 / 06:00
Temperature : -14.0°C
Dew Point : -17.0°C
RH : 78%
Wind : ESE (120 degrees) at 3 m/s
Visibility : > 10000m
Pressure : 778.5 mm Hg
METAR : UUWW 010300Z 12003MPS CAVOK M14/M17 Q1038 R24/190050 NOSIG
==================================================
ICAO : UUEE
Station Name : Moscow/Sheremet'
Elevation : 190m
Time : 1 / 06:00
Temperature : -16.0°C
Dew Point : -17.0°C
RH : 92%
Wind : NE (50 degrees) at 2 m/s
Visibility : 6000m
Pressure : 779.3 mm Hg
Sky Condition : Scattered clouds at 60m
Weather : Freezing Fog
METAR : UUEE 010300Z 05002MPS 6000 NSC M16/M17 Q1039 R24L/410145 R24C/410140 TEMPO 0500 FZFG SCT002
==================================================
ICAO : UUDD
Station Name : Moscow/Domodedov
Elevation : 170m
Time : 1 / 06:00
Temperature : -19.0°C
Dew Point : -22.0°C
RH : 77%
Wind : Variable at 1 m/s
Visibility : > 10000m
Pressure : 779.3 mm Hg
METAR : UUDD 010300Z VRB01MPS CAVOK M19/M22 Q1039 R14R/520195 NOSIG
==================================================
Если человек хочет летать, то это не лечится. :-)

Аватара пользователя
Тюшин Вадим
Site Admin
Сообщения: 2729
Зарегистрирован: 28 ноя 2007 22:36
Начал летать: 1986
Откуда: Москва
Контактная информация:

Re: Планы на 30 ноября, 1 и 2 декабря 2018

Сообщение Тюшин Вадим » 02 дек 2018 07:41

==================================================
ICAO : UUDD
Station Name : Moscow/Domodedov
Elevation : 170m
Time : 2 / 07:00
Temperature : -6.0°C
Dew Point : -8.0°C
RH : 86%
Wind : SE (130 degrees) at 5 m/s
Visibility : 5000m
Pressure : 766.6 mm Hg
Sky Condition : Broken Cumulonimbus clouds at 640m
Weather : Light Snow Shower, Snow Shower
METAR : UUDD 020400Z 13005MPS 5000 -SHSN BKN021CB M06/M08 Q1022 R14R/490392 TEMPO 1000 SHSN
==================================================
ICAO : UUEE
Station Name : Moscow/Sheremet'
Elevation : 190m
Time : 2 / 07:00
Temperature : -6.0°C
Dew Point : -8.0°C
RH : 86%
Wind : ESE (120 degrees) at 6 m/s
Visibility : 6000m
Pressure : 766.6 mm Hg
Sky Condition : Overcast at 610m, Broken Cumulonimbus clouds at 370m
Weather : Light Snow, Snow Shower
METAR : UUEE 020400Z 12006MPS 6000 -SN OVC020 M06/M08 Q1022 R06R/490136 R06C/490130 TEMPO 1000 SHSN BKN012CB
==================================================
ICAO : UUWW
Station Name : Moscow/Vnukovo
Elevation : 200m
Time : 2 / 07:00
Temperature : -7.0°C
Dew Point : -9.0°C
RH : 86%
Wind : ESE (120 degrees) at 3 m/s
Visibility : 3100m
Pressure : 766.6 mm Hg
Sky Condition : Scattered clouds at 270m, Broken clouds at 1200m, Broken Cumulonimbus clouds at 370m
Weather : Light Snow, Snow Shower
METAR : UUWW 020400Z 12003MPS 3100 -SN SCT009 BKN040 M07/M09 Q1022 R01/490337 TEMPO 1100 SHSN BKN012CB
==================================================
Если человек хочет летать, то это не лечится. :-)

Ответить